PARDEE (PAR)

Elevation: 568' · MOKELUMNE R basin · Operator: East Bay Municipal Utility District

Provisional data, subject to change.
Query executed Thursday at 22:16:04   clock

Select a sensor type for a plot of data.
Note: Reservoir Flows are daily averages.

Earlier

Date RES ELE    STORAGE    RES CHG    OUTFLOW    INFLOW    PPT INC   
 FEET   AF   AF   CFS   CFS   INCHES  
03/18/2014 551.13 163280 -126 295 234 0.00
03/19/2014 550.98 162970 -225 305 181 0.00
03/20/2014 550.84 162700 -198 313 220 0.00
03/21/2014 550.72 162440 -167 313 215 0.00
03/22/2014 550.55 162150 -- 308 186 0.00
03/23/2014 550.40 161830 -- 308 172 0.00
03/24/2014 550.25 161520 -218 310 181 0.00
03/25/2014 550.09 161230 -210 299 151 0.07
03/26/2014 550.02 161090 -65 273 206 0.10
03/27/2014 550.00 161030 32 248 187 0.55
03/28/2014 549.92 160920 -47 252 215 0.00
03/29/2014 550.00 161110 -- 250 371 0.00
03/30/2014 549.99 161110 -- 253 182 1.20
03/31/2014 549.97 161070 -- 268 272 0.00
04/01/2014 550.09 161310 229 268 377 0.30
04/02/2014 550.20 161460 216 242 303 0.42
04/03/2014 550.28 161580 215 240 325 0.00
04/04/2014 550.30 161640 138 240 293 0.00
04/05/2014 550.30 161640 -- 240 259 0.00
04/06/2014 550.35 161760 -- 240 320 0.00
04/07/2014 550.43 161930 217 240 358 0.00
04/08/2014 550.57 162190 313 240 403 0.00
04/09/2014 550.76 162580 430 252 480 0.00
04/10/2014 550.92 162890 349 270 458 0.00
04/11/2014 551.08 163170 354 216 397 0.00
04/12/2014 551.16 163320 -- 216 320 0.00
04/13/2014 551.18 163360 -- 248 296 0.00
04/14/2014 551.17 163360 69 252 279 0.00
04/15/2014 551.17 163360 69 253 278 0.00
04/16/2014 551.17 163360 69 269 283 0.00
04/17/2014 -- -- -- -- -- --

Later | Latest

Warning! This data is preliminary and subject to revision.

Download Data Now Download Data Now | Show PAR Map | Plot PAR Data | 1 Month PAR Data | Real-Time PAR Data | PAR Info